Time;durP1;ratioP1;P1;durP2;ratioP2;P2;SDS_P1;SDS_P2;PMS_P1;PMS_P2;Temp;Humidity;BMP_temperature;BMP_pressure;BME280_temperature;BME280_humidity;BME280_pressure;Samples;Min_cycle;Max_cycle;Signal;HPM_P1;HPM_P2
2022/04/15 00:01:20;;;;;;;19.00;11.95;;;4.90;99.90;;;;;;4917660;29;20051;-78
2022/04/15 00:04:03;;;;;;;17.08;12.48;;;4.90;99.90;;;;;;4919160;29;20051;-78
2022/04/15 00:06:32;;;;;;;20.63;12.80;;;4.90;99.90;;;;;;4917928;29;20470;-78
2022/04/15 00:09:03;;;;;;;19.58;12.35;;;4.90;99.90;;;;;;4918218;29;20507;-77
2022/04/15 00:11:38;;;;;;;19.90;12.70;;;4.80;99.90;;;;;;4918561;29;20406;-77
2022/04/15 00:14:15;;;;;;;23.15;13.10;;;4.80;99.90;;;;;;4917606;29;20039;-77
2022/04/15 00:16:43;;;;;;;26.38;13.57;;;4.80;99.90;;;;;;4917703;29;20071;-77
2022/04/15 00:19:23;;;;;;;75.57;12.60;;;4.80;99.90;;;;;;4918160;29;20557;-77
2022/04/15 00:21:55;;;;;;;12.85;10.10;;;4.80;99.90;;;;;;4917913;29;20043;-77
2022/04/15 00:24:40;;;;;;;12.80;9.63;;;4.80;99.90;;;;;;4934070;29;20052;-77
2022/04/15 00:27:11;;;;;;;16.40;11.50;;;4.70;99.90;;;;;;4918087;29;20059;-78
2022/04/15 00:29:47;;;;;;;15.02;10.48;;;4.70;99.90;;;;;;4918488;29;20043;-78
2022/04/15 00:32:14;;;;;;;14.73;10.18;;;4.70;99.90;;;;;;4916464;29;20059;-77
2022/04/15 00:34:51;;;;;;;13.77;9.87;;;4.50;99.90;;;;;;4918155;29;20202;-77
2022/04/15 00:37:23;;;;;;;15.00;10.80;;;4.60;99.90;;;;;;4917504;29;20130;-78
2022/04/15 00:39:55;;;;;;;15.63;11.03;;;4.50;99.90;;;;;;4917535;29;20099;-77
2022/04/15 00:42:24;;;;;;;16.45;11.10;;;4.50;99.90;;;;;;4898994;29;20379;-77
2022/04/15 00:44:57;;;;;;;16.35;10.00;;;4.50;99.90;;;;;;4900247;29;20047;-77
2022/04/15 00:47:51;;;;;;;15.05;10.05;;;4.40;99.90;;;;;;4917610;29;20122;-77
2022/04/15 00:50:21;;;;;;;37.78;11.65;;;4.40;99.90;;;;;;4917369;29;20050;-77
2022/04/15 00:52:55;;;;;;;16.40;11.07;;;4.30;99.90;;;;;;4917777;29;20517;-77
2022/04/15 00:55:23;;;;;;;61.17;12.45;;;4.30;99.90;;;;;;4933238;29;20052;-77
2022/04/15 00:58:01;;;;;;;18.27;8.88;;;4.30;99.90;;;;;;4916507;29;20051;-77
2022/04/15 01:00:37;;;;;;;36.65;9.95;;;4.30;99.90;;;;;;4932495;29;20044;-78
2022/04/15 01:03:06;;;;;;;97.13;12.70;;;4.20;99.90;;;;;;4917294;29;20487;-77
2022/04/15 01:05:38;;;;;;;32.80;12.02;;;4.20;99.90;;;;;;4902086;29;20039;-77
2022/04/15 01:08:08;;;;;;;14.45;9.18;;;4.10;99.90;;;;;;4917600;29;20086;-77
2022/04/15 01:10:50;;;;;;;12.15;8.70;;;4.10;99.90;;;;;;4916675;29;20095;-77
2022/04/15 01:13:26;;;;;;;11.30;8.82;;;4.10;99.90;;;;;;4917095;29;20416;-78
2022/04/15 01:16:27;;;;;;;51.53;11.00;;;4.10;99.90;;;;;;4916987;29;20040;-77
2022/04/15 01:19:09;;;;;;;89.28;12.13;;;4.00;99.90;;;;;;4917326;29;20495;-78
2022/04/15 01:21:40;;;;;;;11.90;8.18;;;4.00;99.90;;;;;;4933029;29;20039;-77
2022/04/15 01:24:19;;;;;;;15.05;9.23;;;4.10;99.90;;;;;;4917442;29;20122;-78
2022/04/15 01:26:51;;;;;;;24.13;13.13;;;4.00;99.90;;;;;;4902764;29;20056;-77
2022/04/15 01:29:28;;;;;;;13.57;10.15;;;3.90;99.90;;;;;;4886716;29;20063;-77
2022/04/15 01:32:03;;;;;;;23.27;9.73;;;3.90;99.90;;;;;;4915572;29;20055;-78
2022/04/15 01:34:44;;;;;;;20.67;8.48;;;3.90;99.90;;;;;;4921629;29;20044;-78
2022/04/15 01:37:19;;;;;;;33.40;6.53;;;3.90;99.90;;;;;;4920397;29;20490;-78
2022/04/15 01:39:52;;;;;;;21.70;6.53;;;3.90;99.90;;;;;;4920916;29;20041;-77
2022/04/15 01:42:31;;;;;;;;;;;3.80;99.90;;;;;;4921580;29;20478;-78
2022/04/15 01:45:12;;;;;;;13.55;8.60;;;3.70;99.90;;;;;;4920184;29;19923;-77
2022/04/15 01:47:44;;;;;;;48.35;10.00;;;3.70;99.90;;;;;;4920641;29;20507;-78
2022/04/15 01:50:12;;;;;;;21.52;8.20;;;3.70;99.90;;;;;;4935368;29;20059;-77
2022/04/15 01:52:44;;;;;;;27.60;9.20;;;3.60;99.90;;;;;;4905547;29;20488;-78
2022/04/15 01:55:15;;;;;;;13.05;8.88;;;3.60;99.90;;;;;;4920730;29;20040;-77
2022/04/15 01:57:48;;;;;;;19.58;10.73;;;3.60;99.90;;;;;;4920456;29;20158;-78
2022/04/15 02:00:15;;;;;;;17.10;11.27;;;3.60;99.90;;;;;;4920030;29;20035;-78
2022/04/15 02:02:44;;;;;;;17.55;11.20;;;3.60;99.90;;;;;;4904704;29;20437;-77
2022/04/15 02:05:13;;;;;;;214.98;19.45;;;3.60;99.90;;;;;;4919831;29;20144;-77
2022/04/15 02:07:44;;;;;;;21.38;12.15;;;3.60;99.90;;;;;;4905426;29;20043;-78
2022/04/15 02:10:14;;;;;;;24.40;14.57;;;3.70;99.90;;;;;;4919426;29;20075;-78
2022/04/15 02:12:40;;;;;;;29.23;15.85;;;3.70;99.90;;;;;;4895690;29;20414;-78
2022/04/15 02:15:12;;;;;;;27.70;14.90;;;3.70;99.90;;;;;;4920660;29;20392;-78
2022/04/15 02:17:41;;;;;;;28.92;15.05;;;3.90;99.90;;;;;;4918897;29;20131;-77
2022/04/15 02:20:13;;;;;;;20.63;13.32;;;4.00;99.90;;;;;;4919624;29;20499;-78
2022/04/15 02:22:42;;;;;;;31.23;16.35;;;4.00;99.90;;;;;;4919653;29;20087;-77
2022/04/15 02:25:10;;;;;;;39.70;18.35;;;4.10;99.90;;;;;;4920193;29;20082;-78
2022/04/15 02:27:44;;;;;;;36.38;18.27;;;4.20;99.90;;;;;;4920239;29;20466;-78
2022/04/15 02:30:21;;;;;;;35.92;17.95;;;4.30;99.90;;;;;;4919570;29;20054;-78
2022/04/15 02:32:49;;;;;;;40.53;18.27;;;4.40;99.90;;;;;;4923385;29;20501;-78
2022/04/15 02:35:29;;;;;;;31.67;17.08;;;4.60;99.90;;;;;;4918962;29;20139;-78
2022/04/15 02:38:14;;;;;;;30.05;16.60;;;4.70;99.90;;;;;;4919132;29;20047;-77
2022/04/15 02:40:52;;;;;;;29.60;16.05;;;4.80;99.90;;;;;;4920313;29;20459;-77
2022/04/15 02:43:31;;;;;;;31.88;16.88;;;4.80;99.90;;;;;;4919589;29;20055;-77
2022/04/15 02:46:26;;;;;;;32.33;16.50;;;4.80;99.90;;;;;;4919849;29;20066;-77
2022/04/15 02:48:55;;;;;;;30.63;15.32;;;4.90;99.90;;;;;;4919197;29;20502;-77
2022/04/15 02:51:27;;;;;;;34.20;17.02;;;4.90;99.90;;;;;;4919313;29;20077;-77
2022/04/15 02:53:54;;;;;;;30.67;15.80;;;4.90;99.90;;;;;;4934957;29;20531;-77
2022/04/15 02:56:33;;;;;;;28.77;16.30;;;5.00;99.90;;;;;;4919314;29;20135;-77
2022/04/15 02:59:10;;;;;;;30.27;15.35;;;5.00;99.90;;;;;;4920712;29;20039;-77
2022/04/15 03:01:36;;;;;;;30.42;16.90;;;5.10;99.90;;;;;;4919397;29;20047;-77
2022/04/15 03:04:05;;;;;;;31.83;16.35;;;5.10;99.90;;;;;;4919568;29;20067;-77
2022/04/15 03:06:36;;;;;;;28.45;15.93;;;5.20;99.90;;;;;;4918876;29;20055;-77
2022/04/15 03:09:12;;;;;;;32.63;18.52;;;5.30;99.90;;;;;;4918248;29;20050;-77
2022/04/15 03:11:40;;;;;;;35.13;18.40;;;5.40;99.90;;;;;;4919842;29;20049;-77
2022/04/15 03:14:24;;;;;;;34.53;20.33;;;5.40;99.90;;;;;;4921303;29;20087;-77
2022/04/15 03:16:56;;;;;;;41.85;21.95;;;5.50;99.90;;;;;;4920041;29;20558;-77
2022/04/15 03:19:26;;;;;;;39.33;21.85;;;5.60;99.90;;;;;;4918782;29;20094;-77
2022/04/15 03:21:53;;;;;;;43.33;21.70;;;5.70;99.90;;;;;;4918964;29;20044;-77
2022/04/15 03:24:23;;;;;;;34.08;21.20;;;5.70;99.90;;;;;;4918793;29;20086;-77
2022/04/15 03:26:49;;;;;;;34.17;20.02;;;5.80;99.90;;;;;;4918901;29;20130;-77
2022/04/15 03:29:18;;;;;;;34.50;19.52;;;5.80;99.90;;;;;;4918503;29;20471;-77
2022/04/15 03:31:49;;;;;;;30.60;18.48;;;5.90;99.90;;;;;;4918529;29;20043;-77
2022/04/15 03:34:17;;;;;;;27.48;17.73;;;5.90;99.90;;;;;;4918417;29;20418;-77
2022/04/15 03:36:49;;;;;;;27.10;17.88;;;6.00;99.90;;;;;;4918605;29;20110;-77
2022/04/15 03:39:15;;;;;;;27.52;16.67;;;6.00;99.90;;;;;;4918888;29;20040;-77
2022/04/15 03:41:42;;;;;;;24.85;17.70;;;6.00;99.90;;;;;;4918072;29;20118;-77
2022/04/15 03:44:08;;;;;;;28.85;17.98;;;6.10;99.90;;;;;;4918999;29;20051;-77
2022/04/15 03:46:38;;;;;;;27.73;17.38;;;6.10;99.90;;;;;;4919007;29;20039;-77
2022/04/15 03:49:07;;;;;;;22.75;17.17;;;6.10;99.90;;;;;;4918099;29;20047;-77
2022/04/15 03:51:37;;;;;;;24.88;17.23;;;6.10;99.90;;;;;;4915128;29;20044;-77
2022/04/15 03:54:11;;;;;;;22.55;16.15;;;6.10;99.90;;;;;;4918922;29;20044;-77
2022/04/15 03:56:46;;;;;;;24.13;15.50;;;6.20;99.90;;;;;;4917970;29;20052;-77
2022/04/15 03:59:13;;;;;;;20.05;15.32;;;6.20;99.90;;;;;;4918256;29;20044;-77
2022/04/15 04:01:39;;;;;;;21.05;14.65;;;6.30;99.90;;;;;;4918216;29;20044;-77
2022/04/15 04:04:10;;;;;;;24.60;15.55;;;6.20;99.90;;;;;;4918662;29;20040;-77
2022/04/15 04:06:45;;;;;;;23.52;14.70;;;6.20;99.90;;;;;;4918342;29;20074;-78
2022/04/15 04:09:16;;;;;;;22.60;13.95;;;6.30;99.90;;;;;;4915474;29;20131;-77
2022/04/15 04:11:47;;;;;;;19.58;12.95;;;6.30;99.90;;;;;;4918029;29;20051;-77
2022/04/15 04:14:16;;;;;;;21.20;13.95;;;6.20;99.90;;;;;;4917867;29;20056;-77
2022/04/15 04:16:42;;;;;;;19.13;13.50;;;6.30;99.90;;;;;;4917361;29;20134;-77
2022/04/15 04:19:11;;;;;;;19.25;13.95;;;6.30;99.90;;;;;;4933449;29;20123;-77
2022/04/15 04:21:47;;;;;;;19.27;12.98;;;6.30;99.90;;;;;;4917685;29;20122;-77
2022/04/15 04:24:19;;;;;;;17.98;13.35;;;6.40;99.90;;;;;;4917716;29;20087;-77
2022/04/15 04:27:03;;;;;;;16.63;13.15;;;6.40;99.90;;;;;;4918346;29;20054;-77
2022/04/15 04:29:37;;;;;;;17.73;13.23;;;6.30;99.90;;;;;;4917728;29;20552;-78
2022/04/15 04:32:09;;;;;;;18.23;13.32;;;6.50;99.90;;;;;;4916189;29;20134;-77
2022/04/15 04:34:39;;;;;;;16.70;12.65;;;6.40;99.90;;;;;;4918126;29;20050;-78
2022/04/15 04:37:12;;;;;;;15.85;12.65;;;6.50;99.90;;;;;;4917408;29;20411;-78
2022/04/15 04:39:46;;;;;;;17.98;12.75;;;6.50;99.90;;;;;;4917738;29;20494;-77
2022/04/15 04:42:21;;;;;;;15.82;12.20;;;6.50;99.90;;;;;;4933176;29;20044;-77
2022/04/15 04:44:52;;;;;;;17.63;11.82;;;6.50;99.90;;;;;;4917681;29;20086;-77
2022/04/15 04:47:21;;;;;;;15.82;12.18;;;6.50;99.90;;;;;;4917671;29;20044;-77
2022/04/15 04:49:48;;;;;;;17.40;12.82;;;6.50;99.90;;;;;;4917454;29;20483;-77
2022/04/15 04:52:21;;;;;;;16.60;12.68;;;6.60;99.90;;;;;;4917536;29;20095;-77
2022/04/15 04:54:53;;;;;;;15.50;11.88;;;6.60;99.90;;;;;;4918023;29;20043;-77
2022/04/15 04:57:43;;;;;;;14.60;12.32;;;6.60;99.90;;;;;;4932758;29;20055;-77
2022/04/15 05:00:23;;;;;;;15.10;12.25;;;6.60;99.90;;;;;;4917770;29;20054;-77
2022/04/15 05:02:51;;;;;;;16.52;12.38;;;6.60;99.90;;;;;;4917224;29;20063;-77
2022/04/15 05:05:27;;;;;;;18.77;12.95;;;6.70;99.90;;;;;;4918170;29;20051;-78
2022/04/15 05:07:59;;;;;;;17.38;12.10;;;6.70;99.90;;;;;;4917231;29;20396;-77
2022/04/15 05:10:28;;;;;;;16.23;12.73;;;6.70;99.90;;;;;;4917531;29;20056;-77
2022/04/15 05:13:00;;;;;;;15.75;12.00;;;6.70;99.90;;;;;;4916666;29;20055;-77
2022/04/15 05:15:42;;;;;;;16.25;11.52;;;6.70;99.90;;;;;;4918123;29;20094;-77
2022/04/15 05:18:08;;;;;;;14.90;11.70;;;6.80;99.90;;;;;;4917509;29;20122;-77
2022/04/15 05:20:45;;;;;;;15.25;11.80;;;6.80;99.90;;;;;;4918131;29;20127;-78
2022/04/15 05:23:13;;;;;;;14.40;11.65;;;6.80;99.90;;;;;;4918001;29;20079;-77
2022/04/15 05:25:45;;;;;;;18.40;12.57;;;6.90;99.90;;;;;;4918590;29;20076;-77
2022/04/15 05:28:18;;;;;;;17.58;12.20;;;6.90;99.90;;;;;;4917748;29;20044;-77
2022/04/15 05:30:47;;;;;;;19.00;11.88;;;6.90;99.90;;;;;;4917748;29;20044;-77
2022/04/15 05:33:24;;;;;;;15.48;12.07;;;6.90;99.90;;;;;;4932928;29;20060;-77
2022/04/15 05:35:58;;;;;;;16.75;12.75;;;6.90;99.90;;;;;;4917367;29;20040;-77
2022/04/15 05:38:32;;;;;;;16.13;12.40;;;7.00;99.90;;;;;;4913784;29;20056;-77
2022/04/15 05:41:09;;;;;;;15.55;12.27;;;7.00;99.90;;;;;;4921780;29;20044;-78
2022/04/15 05:43:38;;;;;;;15.68;12.32;;;7.10;99.90;;;;;;4918857;29;20046;-79
2022/04/15 05:46:06;;;;;;;16.35;12.30;;;7.10;99.90;;;;;;4917514;29;20052;-79
2022/04/15 05:48:38;;;;;;;17.15;11.90;;;7.10;99.90;;;;;;4916319;29;20032;-77
2022/04/15 05:51:05;;;;;;;14.77;11.75;;;7.10;99.90;;;;;;4902998;29;20127;-77
2022/04/15 05:53:36;;;;;;;14.35;11.80;;;7.20;99.90;;;;;;4908797;29;20131;-77
2022/04/15 05:56:02;;;;;;;15.50;12.00;;;7.20;99.90;;;;;;4910988;29;20099;-77
2022/04/15 05:58:31;;;;;;;14.18;12.30;;;7.30;99.90;;;;;;4913139;29;20036;-77
2022/04/15 06:01:00;;;;;;;18.75;12.27;;;7.30;99.90;;;;;;4907426;29;20087;-77
2022/04/15 06:03:38;;;;;;;17.52;12.15;;;7.40;99.90;;;;;;4907342;29;20503;-78
2022/04/15 06:06:05;;;;;;;18.23;12.48;;;7.50;99.90;;;;;;4916045;29;20044;-78
2022/04/15 06:08:34;;;;;;;15.38;12.02;;;7.50;99.90;;;;;;4918340;29;20039;-78
2022/04/15 06:11:00;;;;;;;19.05;12.85;;;7.60;99.90;;;;;;4917676;29;20039;-78
2022/04/15 06:13:26;;;;;;;14.48;12.13;;;7.60;99.90;;;;;;4946831;23;20044;-73
2022/04/15 06:15:58;;;;;;;14.45;11.73;;;7.70;99.90;;;;;;4954251;29;20055;-74
2022/04/15 06:18:26;;;;;;;18.30;14.50;;;7.70;99.90;;;;;;4954764;29;20042;-73
2022/04/15 06:20:52;;;;;;;19.55;12.98;;;7.80;99.90;;;;;;4955309;29;20039;-74
2022/04/15 06:23:18;;;;;;;15.93;12.32;;;7.90;99.90;;;;;;4970464;28;20519;-74
2022/04/15 06:25:45;;;;;;;17.48;12.60;;;7.80;99.90;;;;;;4974345;28;20039;-73
2022/04/15 06:28:11;;;;;;;13.75;11.15;;;8.00;99.90;;;;;;4947637;28;20043;-73
2022/04/15 06:30:37;;;;;;;13.90;11.23;;;8.00;99.90;;;;;;4961416;28;20049;-74
2022/04/15 06:33:05;;;;;;;13.75;10.90;;;8.00;99.90;;;;;;4955509;28;20047;-73
2022/04/15 06:35:32;;;;;;;13.70;10.52;;;8.10;99.90;;;;;;4973341;28;20039;-72
2022/04/15 06:37:58;;;;;;;12.73;11.10;;;8.20;99.90;;;;;;4958779;28;20079;-73
2022/04/15 06:40:23;;;;;;;12.88;10.70;;;8.20;99.90;;;;;;4954609;29;20082;-73
2022/04/15 06:42:49;;;;;;;13.27;11.43;;;8.20;99.90;;;;;;4953184;29;20040;-72
2022/04/15 06:45:14;;;;;;;16.23;10.68;;;8.20;99.90;;;;;;4952760;29;20051;-72
2022/04/15 06:47:40;;;;;;;12.20;9.77;;;8.30;99.90;;;;;;4934995;29;20430;-73
2022/04/15 06:50:06;;;;;;;11.02;8.63;;;8.30;99.90;;;;;;4934228;29;20050;-73
2022/04/15 06:52:32;;;;;;;9.60;7.93;;;8.40;99.90;;;;;;4966437;28;20446;-73
2022/04/15 06:54:58;;;;;;;8.80;8.00;;;8.40;99.90;;;;;;4933875;29;20044;-73
2022/04/15 06:57:23;;;;;;;8.57;7.57;;;8.30;99.90;;;;;;4934617;29;20094;-72
2022/04/15 06:59:49;;;;;;;9.15;8.18;;;8.40;99.90;;;;;;4940342;28;20152;-73
2022/04/15 07:02:14;;;;;;;8.57;7.10;;;8.30;99.90;;;;;;4955702;28;20390;-73
2022/04/15 07:04:40;;;;;;;7.82;6.53;;;8.30;99.90;;;;;;4954807;29;20039;-73
2022/04/15 07:07:05;;;;;;;7.57;6.50;;;8.30;99.90;;;;;;4954314;28;20130;-75
2022/04/15 07:09:31;;;;;;;7.35;5.53;;;8.30;99.90;;;;;;4961361;28;20042;-74
2022/04/15 07:11:57;;;;;;;7.20;6.20;;;8.30;99.90;;;;;;4966121;28;20166;-73
2022/04/15 07:14:22;;;;;;;7.60;6.25;;;8.40;99.90;;;;;;4933547;28;20035;-71
2022/04/15 07:16:48;;;;;;;7.68;6.00;;;8.30;99.90;;;;;;4944945;28;20039;-71
2022/04/15 07:19:14;;;;;;;6.57;5.22;;;8.30;99.90;;;;;;4929627;28;20114;-71
2022/04/15 07:21:44;;;;;;;6.75;6.05;;;8.30;99.90;;;;;;4952452;28;20035;-71
2022/04/15 07:24:10;;;;;;;6.00;5.25;;;8.30;99.90;;;;;;4944307;28;20051;-71
2022/04/15 07:26:36;;;;;;;6.10;5.50;;;8.20;99.90;;;;;;4943056;28;20134;-71
2022/04/15 07:29:02;;;;;;;5.20;4.68;;;8.10;99.90;;;;;;4949766;29;20138;-72
2022/04/15 07:31:28;;;;;;;5.63;4.90;;;8.20;99.90;;;;;;4942868;28;20133;-72
2022/04/15 07:33:54;;;;;;;7.20;5.20;;;8.20;99.90;;;;;;4948822;28;20039;-72
2022/04/15 07:36:31;;;;;;;4.80;4.30;;;8.10;99.90;;;;;;4953158;28;20378;-75
2022/04/15 07:38:57;;;;;;;7.18;5.45;;;8.10;99.90;;;;;;4953618;28;20410;-73
2022/04/15 07:41:23;;;;;;;7.68;5.40;;;8.10;99.90;;;;;;4958128;28;20047;-73
2022/04/15 07:43:48;;;;;;;6.97;4.88;;;8.10;99.90;;;;;;4953978;29;20126;-73
2022/04/15 07:46:14;;;;;;;5.57;4.70;;;8.10;99.90;;;;;;4939546;29;20055;-73
2022/04/15 07:48:40;;;;;;;5.45;4.18;;;8.10;99.90;;;;;;4952079;29;20074;-73
2022/04/15 07:51:06;;;;;;;5.05;4.43;;;8.10;99.90;;;;;;4947133;29;20035;-73
2022/04/15 07:53:31;;;;;;;6.20;4.50;;;8.10;99.90;;;;;;4934200;29;20130;-73
2022/04/15 07:55:57;;;;;;;5.32;4.75;;;8.10;99.90;;;;;;4934624;29;20135;-73
2022/04/15 07:58:22;;;;;;;7.85;4.53;;;8.10;99.90;;;;;;4934132;29;20039;-73
2022/04/15 08:00:49;;;;;;;6.80;4.40;;;8.10;99.90;;;;;;4934912;29;20039;-73
2022/04/15 08:03:17;;;;;;;4.97;4.45;;;8.10;99.90;;;;;;4934356;29;20051;-73
2022/04/15 08:05:42;;;;;;;10.85;6.85;;;8.10;99.90;;;;;;4966302;28;20509;-73
2022/04/15 08:08:08;;;;;;;6.72;5.95;;;8.20;99.90;;;;;;4966379;28;20048;-73
2022/04/15 08:10:34;;;;;;;7.43;6.07;;;8.10;99.90;;;;;;4933866;29;20107;-73
2022/04/15 08:13:02;;;;;;;6.75;5.65;;;8.00;99.90;;;;;;4939620;29;20133;-73
2022/04/15 08:15:27;;;;;;;6.70;5.53;;;8.00;99.90;;;;;;4953087;29;20406;-73
2022/04/15 08:17:53;;;;;;;5.38;4.88;;;8.10;99.90;;;;;;4952847;29;20051;-73
2022/04/15 08:20:18;;;;;;;5.80;5.18;;;8.10;99.90;;;;;;4934005;29;20047;-73
2022/04/15 08:22:44;;;;;;;8.05;5.47;;;8.00;99.90;;;;;;4917931;29;20479;-73
2022/04/15 08:25:10;;;;;;;8.10;5.82;;;8.00;99.90;;;;;;4933830;29;20043;-73
2022/04/15 08:27:35;;;;;;;8.18;6.18;;;8.10;99.90;;;;;;4933675;29;20047;-73
2022/04/15 08:30:01;;;;;;;8.73;6.85;;;8.00;99.90;;;;;;4933585;29;20035;-73
2022/04/15 08:32:33;;;;;;;8.55;7.03;;;8.10;99.90;;;;;;4965676;28;20044;-73
2022/04/15 08:35:00;;;;;;;8.52;6.85;;;8.00;99.90;;;;;;4961231;28;20533;-73
2022/04/15 08:37:25;;;;;;;10.20;7.43;;;8.10;99.90;;;;;;4933743;29;20127;-73
2022/04/15 08:39:52;;;;;;;7.65;6.75;;;8.10;99.90;;;;;;4952714;29;20564;-73
2022/04/15 08:42:20;;;;;;;9.27;7.20;;;8.00;99.90;;;;;;4952598;29;20114;-73
2022/04/15 08:44:49;;;;;;;8.43;6.78;;;8.00;99.90;;;;;;4937214;29;20489;-73
2022/04/15 08:47:15;;;;;;;10.15;7.22;;;8.10;99.90;;;;;;4952319;29;20063;-73
2022/04/15 08:49:40;;;;;;;10.52;7.22;;;8.10;99.90;;;;;;4933312;29;20036;-73
2022/04/15 08:52:09;;;;;;;9.75;7.00;;;8.20;99.90;;;;;;4965314;28;20050;-73
2022/04/15 08:54:35;;;;;;;12.45;7.97;;;8.30;99.90;;;;;;4917421;29;20078;-73
2022/04/15 08:57:01;;;;;;;10.88;8.20;;;8.30;99.90;;;;;;4965999;28;20079;-73
2022/04/15 08:59:26;;;;;;;10.85;8.32;;;8.40;99.90;;;;;;4933084;29;20075;-73
2022/04/15 09:01:52;;;;;;;10.65;8.43;;;8.40;99.90;;;;;;4933516;29;20045;-73
2022/04/15 09:04:20;;;;;;;12.68;8.80;;;8.50;99.90;;;;;;4933337;29;20130;-73
2022/04/15 09:06:54;;;;;;;11.55;9.13;;;8.50;99.90;;;;;;4933629;29;20047;-73
2022/04/15 09:09:19;;;;;;;13.50;10.68;;;8.60;99.90;;;;;;4917192;29;20517;-73
2022/04/15 09:11:48;;;;;;;13.20;9.57;;;8.60;99.90;;;;;;4965159;28;20130;-73
2022/04/15 09:14:15;;;;;;;12.45;9.77;;;8.60;99.90;;;;;;4963258;28;20357;-73
2022/04/15 09:16:41;;;;;;;15.75;12.00;;;8.70;99.90;;;;;;4933413;29;20130;-73
2022/04/15 09:19:08;;;;;;;13.00;9.25;;;8.80;99.90;;;;;;4932905;29;20553;-73
2022/04/15 09:21:34;;;;;;;13.15;10.82;;;8.80;99.90;;;;;;4927753;29;20039;-73
2022/04/15 09:24:00;;;;;;;11.85;9.50;;;8.80;99.90;;;;;;4936492;29;20050;-73
2022/04/15 09:26:26;;;;;;;12.20;10.13;;;8.80;99.90;;;;;;4952186;29;20055;-73
2022/04/15 09:28:53;;;;;;;12.18;9.18;;;8.80;99.90;;;;;;4955089;28;20051;-73
2022/04/15 09:31:20;;;;;;;12.60;9.48;;;8.80;99.90;;;;;;4960061;28;20042;-74
2022/04/15 09:33:54;;;;;;;13.20;9.48;;;8.90;99.90;;;;;;4952200;29;20402;-73
2022/04/15 09:36:23;;;;;;;13.48;9.77;;;8.90;99.90;;;;;;4958941;28;20062;-73
2022/04/15 09:38:50;;;;;;;12.45;9.70;;;9.00;99.90;;;;;;4954114;28;20197;-73
2022/04/15 09:41:20;;;;;;;12.27;9.60;;;9.10;99.90;;;;;;4954382;28;20046;-73
2022/04/15 09:43:53;;;;;;;13.88;9.95;;;9.20;99.90;;;;;;4950265;28;20666;-73
2022/04/15 09:46:20;;;;;;;14.52;10.40;;;9.20;99.90;;;;;;4933995;29;20384;-72
2022/04/15 09:49:07;;;;;;;15.82;10.82;;;9.20;99.90;;;;;;4954262;28;20039;-72
2022/04/15 09:51:40;;;;;;;12.38;10.75;;;9.30;99.90;;;;;;4954129;28;20042;-74
2022/04/15 09:54:09;;;;;;;14.50;10.20;;;9.40;99.90;;;;;;4955238;28;20490;-74
2022/04/15 09:56:37;;;;;;;14.55;9.68;;;9.50;99.90;;;;;;4954998;28;20505;-74
2022/04/15 09:59:06;;;;;;;15.90;10.63;;;9.50;99.90;;;;;;4952844;28;20050;-74
2022/04/15 10:01:33;;;;;;;13.60;10.07;;;9.50;99.90;;;;;;4946383;28;20103;-74
2022/04/15 10:04:00;;;;;;;15.88;11.48;;;9.50;99.90;;;;;;4936422;29;20043;-74
2022/04/15 10:06:27;;;;;;;12.75;10.52;;;9.50;99.90;;;;;;4936357;29;20052;-74
2022/04/15 10:08:54;;;;;;;15.70;10.60;;;9.60;99.90;;;;;;4951208;28;20106;-74
2022/04/15 10:11:20;;;;;;;15.63;10.77;;;9.50;99.90;;;;;;4955466;28;20122;-75
2022/04/15 10:13:46;;;;;;;12.73;10.13;;;9.60;99.90;;;;;;4957466;28;20047;-75
2022/04/15 10:16:15;;;;;;;12.27;9.13;;;9.60;99.90;;;;;;4954192;28;20059;-77
2022/04/15 10:18:42;;;;;;;14.43;10.00;;;9.60;99.90;;;;;;4970685;28;20406;-74
2022/04/15 10:21:08;;;;;;;15.95;10.55;;;9.60;99.90;;;;;;4973972;28;20039;-74
2022/04/15 10:23:35;;;;;;;14.27;9.93;;;9.70;99.90;;;;;;4951449;29;20132;-74
2022/04/15 10:26:03;;;;;;;14.40;9.63;;;9.70;99.90;;;;;;4949951;28;20493;-74
2022/04/15 10:28:42;;;;;;;12.48;9.75;;;9.80;99.90;;;;;;4962389;28;20445;-74
2022/04/15 10:31:11;;;;;;;14.35;10.27;;;9.90;99.90;;;;;;4952841;28;20042;-74
2022/04/15 10:33:39;;;;;;;13.75;10.00;;;10.00;99.90;;;;;;4941391;29;20083;-74
2022/04/15 10:36:15;;;;;;;13.38;9.77;;;10.10;99.90;;;;;;4941679;29;20043;-74
2022/04/15 10:39:03;;;;;;;14.43;9.95;;;10.10;99.90;;;;;;4967034;28;20078;-74
2022/04/15 10:41:50;;;;;;;16.25;10.27;;;10.10;99.90;;;;;;4952373;28;20502;-74
2022/04/15 10:44:29;;;;;;;14.05;10.02;;;10.20;99.90;;;;;;4927415;29;20038;-74
2022/04/15 10:46:58;;;;;;;14.57;10.40;;;10.40;99.90;;;;;;4953485;28;20087;-74
2022/04/15 10:49:27;;;;;;;14.88;10.13;;;10.60;99.90;;;;;;4952091;28;20043;-74
2022/04/15 10:51:58;;;;;;;13.68;9.80;;;10.90;99.90;;;;;;4951624;28;20406;-74
2022/04/15 10:54:36;;;;;;;12.50;9.20;;;11.10;99.90;;;;;;4953453;28;20379;-74
2022/04/15 10:57:10;;;;;;;12.23;8.68;;;11.40;99.90;;;;;;4954645;28;20134;-74
2022/04/15 11:02:24;;;;;;;11.55;8.32;;;11.90;99.90;;;;;;4946321;28;20054;-73
2022/04/15 11:04:51;;;;;;;13.32;9.20;;;12.00;99.90;;;;;;4960963;28;20050;-74
2022/04/15 11:07:27;;;;;;;11.75;9.45;;;11.90;99.90;;;;;;4959082;28;20445;-74
2022/04/15 11:09:53;;;;;;;11.20;9.13;;;12.00;99.90;;;;;;4954039;29;20051;-73
2022/04/15 11:12:35;;;;;;;10.75;8.70;;;11.90;99.90;;;;;;4951326;28;20044;-74
2022/04/15 11:15:05;;;;;;;11.82;7.90;;;11.90;99.90;;;;;;4952297;28;20043;-74
2022/04/15 11:17:41;;;;;;;9.88;8.40;;;12.00;99.90;;;;;;4938682;29;20394;-74
2022/04/15 11:20:09;;;;;;;14.63;8.50;;;12.00;99.90;;;;;;4934753;29;20126;-74
2022/04/15 11:22:43;;;;;;;11.30;8.63;;;12.00;99.90;;;;;;4956454;28;20066;-74
2022/04/15 11:25:10;;;;;;;11.50;8.05;;;12.10;99.90;;;;;;4943548;28;20042;-74
2022/04/15 11:27:39;;;;;;;13.27;8.50;;;12.10;99.90;;;;;;4966605;28;20043;-74
2022/04/15 11:30:11;;;;;;;9.55;8.05;;;12.10;99.90;;;;;;4953749;29;20050;-74
2022/04/15 11:32:54;;;;;;;10.25;7.68;;;12.20;99.90;;;;;;4953709;29;20118;-73
2022/04/15 11:35:32;;;;;;;11.40;8.63;;;12.20;99.90;;;;;;4938926;29;20490;-73
2022/04/15 11:38:03;;;;;;;10.07;7.80;;;12.30;99.90;;;;;;4949623;28;20055;-74
2022/04/15 11:40:34;;;;;;;13.13;8.85;;;12.40;99.90;;;;;;4953664;29;20490;-74
2022/04/15 11:43:01;;;;;;;13.65;8.68;;;12.50;99.90;;;;;;4953000;28;20046;-74
2022/04/15 11:45:35;;;;;;;12.43;8.40;;;12.60;99.90;;;;;;4969844;28;20097;-74
2022/04/15 11:48:21;;;;;;;12.63;7.90;;;12.60;99.90;;;;;;4953749;28;20497;-74
2022/04/15 11:50:49;;;;;;;10.82;6.75;;;12.50;99.90;;;;;;4966838;28;20046;-74
2022/04/15 11:53:15;;;;;;;11.70;7.47;;;12.40;99.90;;;;;;4973070;28;20039;-74
2022/04/15 11:56:01;;;;;;;12.75;7.85;;;12.40;99.90;;;;;;4953317;28;20043;-74
2022/04/15 11:58:34;;;;;;;8.48;6.85;;;12.30;99.90;;;;;;4952478;28;20047;-74
2022/04/15 12:01:01;;;;;;;9.48;6.90;;;12.20;99.90;;;;;;4935794;29;20039;-74
2022/04/15 12:03:28;;;;;;;8.45;6.50;;;12.10;99.90;;;;;;4964435;28;20489;-73
2022/04/15 12:05:57;;;;;;;10.25;6.95;;;11.80;99.90;;;;;;4972569;28;20485;-73
2022/04/15 12:08:25;;;;;;;10.57;7.28;;;11.80;99.90;;;;;;4958862;28;20054;-73
2022/04/15 12:10:51;;;;;;;11.70;7.45;;;11.80;99.90;;;;;;4951313;28;20127;-74
2022/04/15 12:13:50;;;;;;;;;;;;;;;;;;;;;
2022/04/15 12:19:52;;;;;;;9.18;7.75;;;12.00;99.90;;;;;;4933954;29;20052;-76
2022/04/15 12:22:28;;;;;;;11.07;7.57;;;12.00;99.90;;;;;;4945542;29;20036;-75
2022/04/15 12:25:20;;;;;;;10.43;7.57;;;12.00;99.90;;;;;;4933470;28;20405;-73
2022/04/15 12:27:49;;;;;;;10.80;7.20;;;12.10;99.90;;;;;;4938053;29;20055;-75
2022/04/15 12:30:44;;;;;;;12.40;7.68;;;12.10;99.90;;;;;;4946497;29;20047;-76
2022/04/15 12:33:15;;;;;;;10.57;7.55;;;12.10;99.90;;;;;;4949497;29;20141;-76
2022/04/15 12:36:19;;;;;;;8.60;6.65;;;12.10;99.90;;;;;;4919829;29;20044;-76
2022/04/15 12:39:06;;;;;;;11.23;7.53;;;12.20;99.90;;;;;;4936480;29;20046;-76
2022/04/15 12:41:51;;;;;;;11.35;7.75;;;12.30;99.90;;;;;;4950321;29;20047;-77
2022/04/15 12:44:35;;;;;;;9.48;6.85;;;12.40;99.90;;;;;;4936199;29;20111;-76
2022/04/15 12:47:28;;;;;;;10.13;7.05;;;12.50;99.90;;;;;;4952666;29;20511;-76
2022/04/15 12:50:33;;;;;;;9.23;7.15;;;12.70;99.90;;;;;;4947332;29;20390;-76
2022/04/15 12:53:24;;;;;;;10.50;7.43;;;12.70;99.90;;;;;;4930919;29;20052;-77
2022/04/15 12:56:07;;;;;;;8.32;6.47;;;12.80;99.90;;;;;;4935135;29;20035;-76
2022/04/15 12:58:53;;;;;;;8.85;6.78;;;12.90;99.90;;;;;;4927634;29;20039;-76
2022/04/15 13:01:24;;;;;;;8.98;7.43;;;12.70;99.90;;;;;;4936891;29;20047;-76
2022/04/15 13:04:11;;;;;;;9.18;6.93;;;12.70;99.90;;;;;;4934919;29;20043;-76
2022/04/15 13:06:51;;;;;;;9.77;6.68;;;12.70;99.90;;;;;;4935991;29;20058;-76
2022/04/15 13:09:32;;;;;;;9.02;6.65;;;12.70;99.90;;;;;;4932119;29;20407;-76
2022/04/15 13:11:59;;;;;;;8.88;6.40;;;12.60;99.90;;;;;;4922055;29;20046;-76